Time;durP1;ratioP1;P1;durP2;ratioP2;P2;SDS_P1;SDS_P2;PMS_P1;PMS_P2;Temp;Humidity;BMP_temperature;BMP_pressure;BME280_temperature;BME280_humidity;BME280_pressure;Samples;Min_cycle;Max_cycle;Signal;HPM_P1;HPM_P2
2021/05/07 00:01:23;;;;;;;1.63;0.50;;;;;;;5.63;52.49;100030.88;6183501;23;20374;-75
2021/05/07 00:03:49;;;;;;;2.42;0.60;;;;;;;5.59;52.17;100033.25;6165808;23;20012;-74
2021/05/07 00:06:14;;;;;;;1.85;0.80;;;;;;;5.55;52.32;100036.69;6176577;23;20054;-74
2021/05/07 00:08:42;;;;;;;0.63;0.47;;;;;;;5.55;52.35;100036.69;6216017;23;20404;-74
2021/05/07 00:11:17;;;;;;;0.75;0.40;;;;;;;5.53;52.34;100044.25;6217500;23;20035;-74
2021/05/07 00:13:45;;;;;;;2.63;0.32;;;;;;;5.48;52.45;100039.53;6187124;23;20009;-73
2021/05/07 00:16:10;;;;;;;1.00;0.45;;;;;;;5.39;52.50;100039.09;6180416;23;20012;-74
2021/05/07 00:18:38;;;;;;;1.50;0.25;;;;;;;5.38;52.58;100048.28;6184357;23;20011;-73
2021/05/07 00:21:06;;;;;;;0.40;0.40;;;;;;;5.36;53.22;100055.00;6172602;23;20017;-74
2021/05/07 00:23:32;;;;;;;0.73;0.73;;;;;;;5.34;53.37;100057.97;6186272;23;20008;-74
2021/05/07 00:25:58;;;;;;;0.80;0.40;;;;;;;5.28;53.26;100053.50;6160567;23;20009;-75
2021/05/07 00:28:24;;;;;;;0.75;0.50;;;;;;;5.29;54.04;100060.59;6186728;23;20023;-74
2021/05/07 00:30:49;;;;;;;2.20;1.02;;;;;;;5.29;53.99;100059.78;6203680;23;20047;-74
2021/05/07 00:33:15;;;;;;;1.08;0.40;;;;;;;5.28;54.09;100064.34;6211393;23;20012;-74
2021/05/07 00:35:40;;;;;;;1.10;0.50;;;;;;;5.23;54.38;100059.66;6185264;23;20008;-75
2021/05/07 00:38:06;;;;;;;1.90;0.60;;;;;;;5.27;54.67;100068.16;6210556;23;20082;-75
2021/05/07 00:40:33;;;;;;;3.17;0.60;;;;;;;5.27;54.42;100067.31;6184636;23;20012;-75
2021/05/07 00:42:58;;;;;;;2.60;0.50;;;;;;;5.27;54.10;100067.31;6209076;23;20327;-75
2021/05/07 00:45:24;;;;;;;2.90;0.60;;;;;;;5.21;54.98;100067.22;6180328;23;20013;-74
2021/05/07 00:47:59;;;;;;;1.73;0.60;;;;;;;5.18;54.60;100067.72;6210118;23;20012;-75
2021/05/07 00:50:29;;;;;;;2.40;0.73;;;;;;;5.18;55.44;100075.00;6211171;23;20011;-74
2021/05/07 00:52:55;;;;;;;1.10;0.40;;;;;;;5.17;55.47;100078.75;6207826;23;20036;-74
2021/05/07 00:55:21;;;;;;;0.77;0.52;;;;;;;5.15;55.02;100078.19;6182770;23;20336;-75
2021/05/07 00:57:47;;;;;;;0.70;0.43;;;;;;;5.07;55.28;100076.69;6209418;23;20008;-75
2021/05/07 01:00:13;;;;;;;0.28;0.20;;;;;;;5.06;55.32;100083.97;6209818;23;20047;-74
2021/05/07 01:02:39;;;;;;;1.92;0.73;;;;;;;5.02;55.22;100077.41;6212840;23;20004;-75
2021/05/07 01:05:06;;;;;;;2.83;0.40;;;;;;;5.00;56.28;100095.75;6181757;23;20047;-75
2021/05/07 01:07:32;;;;;;;6.20;0.65;;;;;;;4.95;56.37;100092.09;6185950;23;20088;-75
2021/05/07 01:10:00;;;;;;;1.42;0.70;;;;;;;4.93;56.12;100089.63;6211823;23;20038;-74
2021/05/07 01:12:25;;;;;;;1.27;0.60;;;;;;;4.95;56.29;100101.09;6187843;23;20020;-76
2021/05/07 01:15:09;;;;;;;2.65;0.60;;;;;;;4.94;56.75;100096.72;6212500;23;20008;-74
2021/05/07 01:17:45;;;;;;;1.42;0.85;;;;;;;4.89;56.98;100099.28;6186538;23;20005;-75
2021/05/07 01:20:18;;;;;;;0.70;0.50;;;;;;;4.85;56.63;100098.13;6213158;23;20300;-74
2021/05/07 01:22:46;;;;;;;2.35;0.60;;;;;;;4.82;56.80;100104.00;6209657;23;20008;-74
2021/05/07 01:25:14;;;;;;;1.92;0.63;;;;;;;4.79;57.39;100109.91;6185471;23;20001;-72
2021/05/07 01:27:42;;;;;;;0.50;0.50;;;;;;;4.71;57.10;100101.06;6185695;22;20032;-74
2021/05/07 01:30:25;;;;;;;0.50;0.50;;;;;;;4.79;57.87;100104.47;6211595;23;20066;-73
2021/05/07 01:32:51;;;;;;;4.20;0.90;;;;;;;4.70;57.71;100095.88;6181566;23;20088;-73
2021/05/07 01:35:23;;;;;;;1.08;0.40;;;;;;;4.74;58.67;100107.09;6185707;23;20000;-74
2021/05/07 01:37:52;;;;;;;1.77;0.57;;;;;;;4.79;58.95;100104.47;6189353;23;20490;-74
2021/05/07 01:40:22;;;;;;;2.55;1.00;;;;;;;4.76;59.16;100100.38;6214637;23;20008;-73
2021/05/07 01:42:50;;;;;;;4.72;0.80;;;;;;;4.84;59.51;100107.31;6185265;23;20471;-73
2021/05/07 01:45:20;;;;;;;1.95;0.63;;;;;;;4.82;58.08;100110.25;6180451;23;20434;-74
2021/05/07 01:47:45;;;;;;;0.50;0.40;;;;;;;4.72;58.04;100100.00;6187723;23;20005;-73
2021/05/07 01:50:14;;;;;;;0.70;0.30;;;;;;;4.72;57.98;100110.84;6162790;23;20367;-74
2021/05/07 01:52:39;;;;;;;0.93;0.20;;;;;;;4.65;57.85;100114.72;6190385;23;20022;-74
2021/05/07 01:55:11;;;;;;;9.45;0.73;;;;;;;4.55;58.50;100110.69;6188185;23;20012;-73
2021/05/07 01:57:38;;;;;;;2.15;0.52;;;;;;;4.56;58.50;100127.78;6218621;23;20035;-74
2021/05/07 02:00:10;;;;;;;0.93;0.85;;;;;;;4.49;58.53;100127.88;6167149;23;20008;-73
2021/05/07 02:02:35;;;;;;;3.70;0.73;;;;;;;4.42;59.08;100129.06;6191013;23;20008;-74
2021/05/07 02:05:01;;;;;;;2.42;0.57;;;;;;;4.40;59.23;100139.31;6191850;23;20077;-73
2021/05/07 02:07:28;;;;;;;2.20;1.10;;;;;;;4.32;59.64;100138.59;6139815;23;20009;-74
2021/05/07 02:09:54;;;;;;;0.63;0.50;;;;;;;4.32;59.61;100143.16;6218164;23;20008;-74
2021/05/07 02:12:19;;;;;;;0.85;0.77;;;;;;;4.29;60.26;100149.03;6164509;23;20012;-73
2021/05/07 02:14:47;;;;;;;2.47;1.35;;;;;;;4.22;60.36;100143.75;6166398;23;20023;-74
2021/05/07 02:17:15;;;;;;;3.92;0.32;;;;;;;4.14;60.53;100141.34;6214581;23;20011;-74
2021/05/07 02:19:40;;;;;;;0.77;0.68;;;;;;;4.09;60.82;100147.47;6219664;23;20058;-75
2021/05/07 02:22:06;;;;;;;2.78;0.75;;;;;;;4.15;61.42;100170.06;6186706;23;20083;-75
2021/05/07 02:24:31;;;;;;;1.20;0.80;;;;;;;4.12;61.15;100162.41;6168044;23;20170;-75
2021/05/07 02:26:57;;;;;;;1.88;0.70;;;;;;;3.98;61.68;100164.47;6190838;23;20004;-72
2021/05/07 02:29:22;;;;;;;2.47;0.88;;;;;;;3.86;62.56;100161.72;6191460;23;20047;-72
2021/05/07 02:31:48;;;;;;;3.85;1.02;;;;;;;3.83;62.65;100175.69;6213421;23;20004;-73
2021/05/07 02:34:13;;;;;;;2.47;0.80;;;;;;;3.70;63.60;100163.16;6216065;23;20020;-73
2021/05/07 02:36:40;;;;;;;3.30;0.88;;;;;;;3.67;64.09;100164.44;6189827;23;20032;-73
2021/05/07 02:39:07;;;;;;;2.50;1.00;;;;;;;3.63;64.29;100179.44;6207396;23;20016;-71
2021/05/07 02:41:36;;;;;;;3.45;1.25;;;;;;;3.58;63.70;100182.03;6190149;23;20016;-73
2021/05/07 02:44:05;;;;;;;3.33;0.70;;;;;;;3.54;65.01;100180.81;6189360;23;20033;-73
2021/05/07 02:46:33;;;;;;;1.77;0.77;;;;;;;3.49;65.39;100183.38;6186996;23;20095;-73
2021/05/07 02:49:01;;;;;;;2.83;1.45;;;;;;;3.38;64.67;100170.59;6186426;23;19997;-74
2021/05/07 02:51:27;;;;;;;3.97;0.60;;;;;;;3.41;64.95;100183.66;6218813;23;20005;-75
2021/05/07 02:53:53;;;;;;;5.50;0.88;;;;;;;3.34;65.60;100178.31;6214931;23;20016;-73
2021/05/07 02:56:18;;;;;;;2.40;0.77;;;;;;;3.35;65.72;100188.09;6216445;23;20004;-74
2021/05/07 02:58:44;;;;;;;2.38;1.30;;;;;;;3.32;66.48;100183.13;6185764;23;20107;-75
2021/05/07 03:01:10;;;;;;;6.72;0.90;;;;;;;3.32;66.95;100183.94;6217656;23;20087;-75
2021/05/07 03:03:35;;;;;;;1.48;0.95;;;;;;;3.32;66.02;100183.94;6218296;23;20008;-75
2021/05/07 03:06:01;;;;;;;6.45;0.90;;;;;;;3.34;66.45;100188.31;6216809;23;20016;-75
2021/05/07 03:08:26;;;;;;;2.05;0.80;;;;;;;3.28;66.86;100181.94;6189882;23;20094;-73
2021/05/07 03:10:51;;;;;;;1.33;0.77;;;;;;;3.27;66.22;100186.53;6218329;23;20008;-74
2021/05/07 03:13:17;;;;;;;2.85;0.85;;;;;;;3.24;65.35;100181.56;6190868;23;20088;-74
2021/05/07 03:15:43;;;;;;;2.58;0.68;;;;;;;3.24;65.59;100184.25;6191511;23;20017;-74
2021/05/07 03:18:22;;;;;;;7.18;0.75;;;;;;;3.24;66.76;100186.13;6212049;23;20008;-74
2021/05/07 03:20:48;;;;;;;1.40;0.47;;;;;;;3.26;66.44;100189.44;6216871;23;20005;-72
2021/05/07 03:23:14;;;;;;;3.35;0.82;;;;;;;3.20;65.92;100188.47;6215271;23;20009;-73
2021/05/07 03:25:40;;;;;;;0.77;0.40;;;;;;;3.19;65.80;100197.59;6216615;23;20488;-72
2021/05/07 03:28:06;;;;;;;0.73;0.50;;;;;;;3.13;66.03;100185.00;6217462;22;20111;-73
2021/05/07 03:30:33;;;;;;;5.40;0.40;;;;;;;3.11;65.82;100187.06;6215554;23;20020;-74
2021/05/07 03:32:59;;;;;;;0.80;0.43;;;;;;;3.10;65.77;100191.66;6161410;23;20009;-73
2021/05/07 03:35:25;;;;;;;2.28;0.35;;;;;;;3.11;65.78;100182.50;6162243;23;20008;-74
2021/05/07 03:37:51;;;;;;;1.17;0.63;;;;;;;3.20;65.36;100193.03;6188394;23;20008;-73
2021/05/07 03:40:16;;;;;;;0.40;0.40;;;;;;;3.26;66.45;100195.66;6185843;23;20008;-73
2021/05/07 03:42:44;;;;;;;0.80;0.30;;;;;;;3.27;66.21;100186.53;6215302;23;20431;-73
2021/05/07 03:45:10;;;;;;;1.45;0.50;;;;;;;3.25;65.04;100183.19;6159248;23;20009;-75
2021/05/07 03:47:35;;;;;;;3.13;0.65;;;;;;;3.26;65.19;100184.84;6188744;23;20444;-75
2021/05/07 03:50:01;;;;;;;0.55;0.40;;;;;;;3.28;65.67;100190.84;6179322;23;20062;-73
2021/05/07 03:52:26;;;;;;;1.02;0.82;;;;;;;3.29;66.34;100195.22;6215040;23;20095;-73
2021/05/07 03:54:52;;;;;;;4.43;0.73;;;;;;;3.25;66.16;100199.41;6161818;23;20032;-74
2021/05/07 03:57:19;;;;;;;0.65;0.45;;;;;;;3.25;66.29;100204.81;6213445;23;20016;-74
2021/05/07 03:59:45;;;;;;;4.13;0.95;;;;;;;3.22;66.02;100209.84;6188026;23;20320;-74
2021/05/07 04:02:10;;;;;;;1.88;0.55;;;;;;;3.12;66.46;100215.75;6214032;23;20000;-74
2021/05/07 04:04:37;;;;;;;5.20;0.40;;;;;;;3.01;66.24;100216.47;6156475;23;20004;-74
2021/05/07 04:07:03;;;;;;;0.73;0.57;;;;;;;2.87;65.06;100218.47;6186600;23;20066;-73
2021/05/07 04:09:35;;;;;;;0.85;0.65;;;;;;;2.77;65.78;100224.34;6185370;23;20008;-74
2021/05/07 04:12:13;;;;;;;2.42;0.73;;;;;;;2.68;66.75;100225.69;6187286;23;20008;-74
2021/05/07 04:14:39;;;;;;;3.97;0.90;;;;;;;2.64;67.11;100235.25;6169854;23;20015;-72
2021/05/07 04:17:04;;;;;;;2.33;1.15;;;;;;;2.67;66.79;100240.22;6211519;23;20331;-73
2021/05/07 04:19:29;;;;;;;3.92;1.15;;;;;;;2.64;67.40;100240.66;6214860;23;20331;-73
2021/05/07 04:21:55;;;;;;;6.00;0.80;;;;;;;2.63;67.95;100234.44;6158883;23;20005;-73
2021/05/07 04:24:20;;;;;;;7.88;0.70;;;;;;;2.62;68.19;100239.00;6211577;23;20013;-73
2021/05/07 04:26:46;;;;;;;5.47;0.85;;;;;;;2.61;68.22;100245.47;6187534;23;20382;-73
2021/05/07 04:29:11;;;;;;;5.93;0.85;;;;;;;2.67;69.43;100245.63;6183010;23;20021;-73
2021/05/07 04:31:37;;;;;;;2.67;0.50;;;;;;;2.62;68.83;100238.19;6208949;23;20509;-72
2021/05/07 04:34:05;;;;;;;1.85;0.75;;;;;;;2.67;69.24;100246.44;6213303;23;20028;-74
2021/05/07 04:36:31;;;;;;;5.43;0.52;;;;;;;2.66;67.64;100243.94;6186484;23;20030;-74
2021/05/07 04:38:57;;;;;;;0.75;0.60;;;;;;;2.67;68.52;100245.63;6187722;23;19997;-74
2021/05/07 04:41:23;;;;;;;5.22;0.52;;;;;;;2.64;69.58;100246.06;6161300;23;20016;-73
2021/05/07 04:43:48;;;;;;;2.35;0.63;;;;;;;2.69;68.51;100257.03;6183606;23;20009;-73
2021/05/07 04:46:14;;;;;;;1.48;0.70;;;;;;;2.68;68.43;100258.09;6212045;23;20012;-74
2021/05/07 04:48:39;;;;;;;1.88;0.73;;;;;;;2.62;68.74;100249.78;6210992;23;20374;-73
2021/05/07 04:51:04;;;;;;;2.80;0.75;;;;;;;2.65;69.06;100255.81;6209229;23;20011;-71
2021/05/07 04:53:30;;;;;;;0.70;0.60;;;;;;;2.69;68.46;100259.75;6208253;23;20016;-72
2021/05/07 04:55:55;;;;;;;0.85;0.60;;;;;;;2.70;69.28;100262.22;6212165;23;20012;-72
2021/05/07 04:58:21;;;;;;;1.45;0.55;;;;;;;2.72;68.00;100265.53;6211353;23;20030;-72
2021/05/07 05:00:46;;;;;;;0.60;0.50;;;;;;;2.75;68.19;100264.25;6186847;23;20071;-72
2021/05/07 05:03:11;;;;;;;1.50;0.45;;;;;;;2.74;68.33;100268.81;6185305;23;20491;-73
2021/05/07 05:05:37;;;;;;;3.80;0.57;;;;;;;2.78;67.95;100263.81;6158839;23;20086;-73
2021/05/07 05:08:03;;;;;;;2.25;0.50;;;;;;;2.88;67.97;100277.66;6187443;23;20343;-73
2021/05/07 05:10:29;;;;;;;1.55;0.63;;;;;;;2.95;68.09;100283.84;6185860;23;20317;-72
2021/05/07 05:12:54;;;;;;;2.28;0.60;;;;;;;3.00;68.57;100288.59;6191261;23;20050;-73
2021/05/07 05:15:20;;;;;;;0.65;0.40;;;;;;;3.01;68.43;100294.81;6190133;23;20195;-72
2021/05/07 05:17:45;;;;;;;1.67;0.70;;;;;;;3.02;67.60;100301.88;6218663;23;20004;-73
2021/05/07 05:20:11;;;;;;;4.53;0.63;;;;;;;3.05;67.74;100296.03;6218273;23;20005;-73
2021/05/07 05:22:40;;;;;;;2.50;0.90;;;;;;;3.09;67.81;100303.47;6216454;23;20379;-72
2021/05/07 05:25:06;;;;;;;4.18;0.60;;;;;;;3.17;68.95;100299.69;6217237;23;20005;-73
2021/05/07 05:27:32;;;;;;;0.80;0.70;;;;;;;3.23;69.12;100304.22;6210611;23;20011;-73
2021/05/07 05:29:58;;;;;;;0.90;0.60;;;;;;;3.30;68.58;100310.41;6185803;23;20023;-73
2021/05/07 05:32:23;;;;;;;5.47;0.93;;;;;;;3.39;67.87;100302.00;6216350;23;20474;-73
2021/05/07 05:34:49;;;;;;;1.45;0.95;;;;;;;3.50;68.38;100314.78;6192245;23;20005;-74
2021/05/07 05:37:14;;;;;;;1.73;1.00;;;;;;;3.58;68.88;100306.41;6217843;23;20359;-76
2021/05/07 05:39:40;;;;;;;1.27;0.60;;;;;;;3.67;67.98;100321.28;6215959;23;20008;-75
2021/05/07 05:42:05;;;;;;;1.55;0.85;;;;;;;3.76;67.65;100323.72;6214587;23;20005;-73
2021/05/07 05:44:31;;;;;;;1.23;0.80;;;;;;;3.84;68.21;100331.53;6216020;23;20343;-74
2021/05/07 05:46:56;;;;;;;0.65;0.65;;;;;;;3.93;68.38;100334.75;6180502;23;20024;-72
2021/05/07 05:49:22;;;;;;;4.68;0.70;;;;;;;3.95;67.49;100319.97;6190344;23;20090;-73
2021/05/07 05:51:47;;;;;;;7.22;0.55;;;;;;;4.11;67.87;100331.25;6185572;23;20005;-73
2021/05/07 05:54:13;;;;;;;1.17;0.60;;;;;;;4.18;67.68;100338.25;6187845;23;20012;-75
2021/05/07 05:56:39;;;;;;;1.17;0.68;;;;;;;4.22;67.39;100329.66;6213485;23;20013;-72
2021/05/07 05:59:04;;;;;;;6.20;1.13;;;;;;;4.33;66.96;100332.44;6187250;23;20012;-74
2021/05/07 06:01:30;;;;;;;2.80;0.80;;;;;;;4.40;66.64;100340.50;6207735;23;20055;-75
2021/05/07 06:03:55;;;;;;;2.75;1.10;;;;;;;4.48;66.75;100336.63;6216756;23;20001;-73
2021/05/07 06:06:21;;;;;;;2.40;0.50;;;;;;;4.54;66.15;100339.28;6217426;23;20088;-73
2021/05/07 06:08:46;;;;;;;1.42;0.80;;;;;;;4.59;66.52;100333.16;6189376;23;20509;-73
2021/05/07 06:11:12;;;;;;;1.52;1.00;;;;;;;4.71;66.06;100342.16;6219897;23;20420;-74
2021/05/07 06:13:37;;;;;;;0.73;0.73;;;;;;;4.78;66.14;100341.25;6169193;23;20008;-74
2021/05/07 06:16:03;;;;;;;0.93;0.73;;;;;;;4.82;65.10;100342.44;6222484;23;20398;-75
2021/05/07 06:18:29;;;;;;;0.75;0.45;;;;;;;4.90;64.64;100339.41;6216611;23;20091;-74
2021/05/07 06:20:54;;;;;;;5.78;1.08;;;;;;;4.95;64.82;100342.25;6192193;23;20032;-74
2021/05/07 06:23:20;;;;;;;0.70;0.60;;;;;;;4.85;64.04;100323.03;6218777;23;20008;-72
2021/05/07 06:25:45;;;;;;;3.03;0.77;;;;;;;5.07;64.90;100345.00;6221702;23;20012;-72
2021/05/07 06:28:13;;;;;;;2.25;0.68;;;;;;;5.19;64.44;100369.44;6149583;23;20044;-74
2021/05/07 06:30:39;;;;;;;0.68;0.63;;;;;;;5.23;64.73;100354.34;6227139;23;20051;-73
2021/05/07 06:33:05;;;;;;;2.17;1.00;;;;;;;5.34;64.00;100367.09;6197167;23;20005;-72
2021/05/07 06:35:30;;;;;;;3.33;0.93;;;;;;;5.42;63.99;100358.63;6222643;23;20028;-74
2021/05/07 06:38:17;;;;;;;1.40;0.90;;;;;;;5.51;63.38;100361.81;6188493;23;20066;-75
2021/05/07 06:40:42;;;;;;;;;;;;;;;5.65;63.87;100362.44;6223641;23;20453;-72
2021/05/07 06:43:09;;;;;;;2.22;0.85;;;;;;;5.67;63.20;100365.75;6198933;23;19939;-73
2021/05/07 06:45:35;;;;;;;3.47;1.02;;;;;;;5.73;63.38;100364.78;6197824;23;20008;-73
2021/05/07 06:48:00;;;;;;;4.07;1.13;;;;;;;5.84;63.22;100370.44;6226981;23;20007;-72
2021/05/07 06:50:26;;;;;;;1.27;0.60;;;;;;;5.88;62.93;100366.22;6227351;23;20082;-72
2021/05/07 06:52:51;;;;;;;0.70;0.57;;;;;;;5.93;62.60;100369.06;6199221;23;20391;-74
2021/05/07 06:55:17;;;;;;;2.63;0.57;;;;;;;5.98;62.30;100369.19;6222620;23;20015;-72
2021/05/07 06:57:43;;;;;;;3.53;1.50;;;;;;;6.15;62.69;100371.16;6222108;23;20005;-73
2021/05/07 07:00:10;;;;;;;1.63;0.60;;;;;;;6.29;62.37;100378.00;6196721;23;20011;-74
2021/05/07 07:02:35;;;;;;;1.63;0.45;;;;;;;6.38;62.11;100382.03;6196699;23;20090;-74
2021/05/07 07:05:01;;;;;;;5.82;1.15;;;;;;;6.45;61.78;100380.00;6194003;23;20339;-73
2021/05/07 07:07:28;;;;;;;2.95;0.80;;;;;;;6.54;61.70;100379.59;6222182;23;20004;-73
2021/05/07 07:09:54;;;;;;;3.38;0.90;;;;;;;6.59;60.67;100382.44;6193882;23;20075;-72
2021/05/07 07:12:20;;;;;;;6.28;0.70;;;;;;;6.62;60.82;100377.34;6190123;23;20005;-74
2021/05/07 07:14:50;;;;;;;0.75;0.68;;;;;;;6.72;60.21;100376.72;6216499;23;20031;-72
2021/05/07 07:17:16;;;;;;;11.48;0.80;;;;;;;6.89;60.46;100394.97;6198330;23;20019;-74
2021/05/07 07:19:42;;;;;;;1.67;0.73;;;;;;;6.95;60.01;100396.72;6197880;23;20312;-74
2021/05/07 07:22:09;;;;;;;6.68;1.02;;;;;;;6.98;59.63;100388.09;6193978;23;20004;-74
2021/05/07 07:24:35;;;;;;;1.55;0.63;;;;;;;7.18;60.06;100400.41;6194388;23;20005;-74
2021/05/07 07:27:01;;;;;;;12.02;1.58;;;;;;;7.31;59.64;100400.94;6192974;23;20103;-75
2021/05/07 07:29:26;;;;;;;1.17;0.85;;;;;;;7.41;60.14;100394.03;6220447;22;20432;-73
2021/05/07 07:31:53;;;;;;;4.97;1.50;;;;;;;7.56;59.74;100415.22;6228027;23;20023;-71
2021/05/07 07:34:19;;;;;;;1.00;0.63;;;;;;;7.69;58.87;100409.47;6195351;23;20040;-73
2021/05/07 07:36:45;;;;;;;2.58;0.73;;;;;;;7.82;59.07;100414.56;6223055;23;20001;-73
2021/05/07 07:39:16;;;;;;;2.25;1.02;;;;;;;7.88;57.88;100423.66;6195500;23;20052;-78
2021/05/07 07:41:45;;;;;;;0.68;0.60;;;;;;;8.00;58.18;100420.84;6207918;23;20012;-76
2021/05/07 07:44:10;;;;;;;2.70;0.50;;;;;;;8.06;58.54;100422.59;6206425;23;20015;-78
2021/05/07 07:46:38;;;;;;;1.42;1.00;;;;;;;8.33;58.02;100428.13;6204256;23;20004;-77
2021/05/07 07:49:14;;;;;;;0.47;0.40;;;;;;;8.50;57.88;100422.69;6177193;23;20063;-78
2021/05/07 07:51:42;;;;;;;1.05;0.57;;;;;;;8.54;56.91;100412.94;6227802;23;20026;-78
2021/05/07 07:54:19;;;;;;;4.25;0.70;;;;;;;8.81;56.63;100433.97;6225367;23;20043;-78
2021/05/07 07:57:02;;;;;;;0.70;0.40;;;;;;;9.04;57.04;100442.97;6225813;23;20019;-80
2021/05/07 07:59:35;;;;;;;0.82;0.40;;;;;;;9.05;55.65;100425.50;6205612;23;20012;-79
2021/05/07 08:02:08;;;;;;;2.78;0.63;;;;;;;9.24;55.27;100437.75;6204914;23;20000;-76
2021/05/07 08:04:36;;;;;;;2.33;0.80;;;;;;;9.33;55.06;100443.56;6198131;23;20482;-76
2021/05/07 08:07:02;;;;;;;1.58;0.80;;;;;;;9.44;55.48;100441.75;6200096;23;20001;-77
2021/05/07 08:09:28;;;;;;;2.78;0.77;;;;;;;9.56;54.29;100445.16;6204383;23;20009;-77
2021/05/07 08:11:55;;;;;;;1.55;0.57;;;;;;;9.64;54.69;100440.28;6205035;23;20012;-79
2021/05/07 08:14:41;;;;;;;3.30;1.05;;;;;;;9.84;54.55;100445.94;6232394;23;20012;-80
2021/05/07 08:17:08;;;;;;;0.43;0.40;;;;;;;9.91;53.79;100452.00;6205724;23;20008;-79
2021/05/07 08:19:34;;;;;;;1.02;0.70;;;;;;;10.02;52.17;100460.28;6176929;23;20015;-79
2021/05/07 08:22:30;;;;;;;;;;;;;;;;;;;;;
2021/05/07 08:24:56;;;;;;;1.45;0.30;;;;;;;10.23;51.84;100448.41;6172726;23;20024;-76
2021/05/07 08:27:28;;;;;;;2.88;0.57;;;;;;;10.37;51.14;100448.81;6195751;23;20035;-73
2021/05/07 08:30:14;;;;;;;3.03;0.93;;;;;;;10.60;50.61;100458.50;6224224;22;20023;-78
2021/05/07 08:32:41;;;;;;;4.60;1.00;;;;;;;10.53;48.53;100457.91;6201766;23;20439;-75
2021/05/07 08:35:11;;;;;;;6.53;0.88;;;;;;;10.37;48.25;100442.53;6202972;23;20020;-80
2021/05/07 08:37:42;;;;;;;5.53;0.70;;;;;;;10.48;48.48;100456.00;6204066;23;20004;-79
2021/05/07 08:40:31;;;;;;;1.65;0.50;;;;;;;10.68;48.25;100459.91;6205363;23;20004;-80
2021/05/07 08:42:59;;;;;;;1.20;0.70;;;;;;;10.81;47.05;100459.41;6206886;23;20001;-80
2021/05/07 08:45:32;;;;;;;0.68;0.45;;;;;;;10.97;47.59;100457.56;6200343;23;20008;-80
2021/05/07 08:48:08;;;;;;;;;;;;;;;;;;;;;
2021/05/07 08:50:49;;;;;;;;;;;;;;;;;;;;;
2021/05/07 08:56:09;;;;;;;1.10;0.63;;;;;;;11.43;45.47;100459.59;6205592;23;20001;-77
2021/05/07 08:58:38;;;;;;;2.13;0.75;;;;;;;11.35;44.34;100430.03;6203063;23;20001;-79
2021/05/07 09:01:15;;;;;;;;;;;;;;;;;;;;;
2021/05/07 09:03:49;;;;;;;3.70;1.20;;;;;;;11.94;43.86;100463.53;6231912;23;20024;-80
2021/05/07 09:06:30;;;;;;;4.72;0.93;;;;;;;11.95;43.82;100449.56;6231510;23;20048;-80
2021/05/07 09:09:27;;;;;;;0.80;0.70;;;;;;;12.42;44.03;100477.75;6182839;23;20009;-79
2021/05/07 09:12:03;;;;;;;;;;;;;;;12.79;42.96;100472.97;6194142;23;20035;-77
2021/05/07 09:14:49;;;;;;;2.75;0.77;;;;;;;12.94;42.64;100459.22;6229930;23;20010;-80
2021/05/07 09:17:17;;;;;;;;;;;;;;;13.53;43.26;100473.22;6199738;23;19996;-78
2021/05/07 09:19:43;;;;;;;3.92;0.50;;;;;;;13.70;42.48;100479.13;6202781;23;19908;-80
2021/05/07 09:22:11;;;;;;;1.02;0.40;;;;;;;14.01;42.12;100483.59;6204692;23;20005;-80
2021/05/07 09:24:40;;;;;;;1.38;0.60;;;;;;;14.15;41.30;100487.31;6228411;23;20009;-81
2021/05/07 09:27:06;;;;;;;1.02;0.77;;;;;;;14.10;40.57;100479.91;6202519;23;20381;-78
2021/05/07 09:29:40;;;;;;;1.42;0.60;;;;;;;14.04;40.65;100475.56;6176726;23;20072;-78
2021/05/07 09:32:25;;;;;;;0.73;0.45;;;;;;;14.17;39.90;100462.28;6204127;23;20063;-79
2021/05/07 09:34:54;;;;;;;2.50;0.70;;;;;;;14.82;38.54;100490.25;6203216;23;20009;-77
2021/05/07 09:37:44;;;;;;;2.75;1.00;;;;;;;15.44;36.61;100488.63;6200248;23;20088;-80
2021/05/07 09:40:22;;;;;;;1.63;0.52;;;;;;;15.15;34.83;100475.78;6223334;23;20000;-76
2021/05/07 09:43:06;;;;;;;0.80;0.50;;;;;;;14.69;35.69;100465.34;6194659;23;20078;-77
2021/05/07 09:45:38;;;;;;;1.42;0.88;;;;;;;14.56;36.78;100470.41;6222710;23;20000;-74
2021/05/07 09:48:40;;;;;;;;;;;;;;;;;;;;;
2021/05/07 09:51:18;;;;;;;0.65;0.30;;;;;;;17.54;36.16;100485.97;6216797;23;20044;-77
2021/05/07 09:53:52;;;;;;;1.58;0.65;;;;;;;17.44;30.88;100481.47;6194936;23;20501;-76
2021/05/07 09:56:28;;;;;;;1.65;0.40;;;;;;;17.36;31.19;100496.03;6226067;23;20082;-77
2021/05/07 09:59:06;;;;;;;;;;;;;;;;;;;;;
2021/05/07 10:01:35;;;;;;;1.60;0.50;;;;;;;19.75;29.28;100473.63;6203311;23;20416;-75
2021/05/07 10:04:11;;;;;;;;;;;;;;;;;;;;;
2021/05/07 10:06:47;;;;;;;0.30;0.20;;;;;;;22.99;24.96;100500.97;6227102;23;20035;-77
2021/05/07 10:09:30;;;;;;;2.40;0.35;;;;;;;22.36;22.36;100490.09;6176652;23;20317;-77
2021/05/07 10:12:19;;;;;;;4.40;0.55;;;;;;;20.84;23.16;100491.06;6201585;23;20008;-77
2021/05/07 10:14:47;;;;;;;1.33;0.50;;;;;;;20.38;25.53;100496.25;6228826;23;20079;-76
2021/05/07 10:17:18;;;;;;;0.63;0.20;;;;;;;21.32;27.04;100484.25;6194505;23;20036;-73
2021/05/07 10:19:45;;;;;;;0.50;0.30;;;;;;;22.04;24.96;100500.06;6188966;23;20497;-75
2021/05/07 10:22:13;;;;;;;0.50;0.40;;;;;;;23.25;25.43;100490.66;6194544;23;20001;-73
2021/05/07 10:24:53;;;;;;;1.05;0.32;;;;;;;24.79;25.23;100496.19;6222494;23;20060;-74
2021/05/07 10:27:27;;;;;;;1.05;0.40;;;;;;;26.10;21.65;100479.13;6199249;23;20004;-74
2021/05/07 10:30:05;;;;;;;0.60;0.50;;;;;;;27.02;19.64;100512.00;6198217;23;20021;-73
2021/05/07 10:32:38;;;;;;;0.55;0.28;;;;;;;26.25;18.58;100495.03;6223580;23;20020;-73
2021/05/07 10:35:06;;;;;;;1.25;0.47;;;;;;;24.67;18.89;100488.72;6198711;23;20068;-74
2021/05/07 10:37:44;;;;;;;3.20;0.60;;;;;;;23.20;19.88;100510.41;6222610;23;20004;-73
2021/05/07 10:40:23;;;;;;;2.13;0.45;;;;;;;21.64;21.44;100512.53;6198644;23;20072;-72
2021/05/07 10:43:15;;;;;;;1.73;0.80;;;;;;;20.38;23.02;100507.34;6222728;23;20005;-73
2021/05/07 10:46:00;;;;;;;2.10;0.50;;;;;;;19.41;24.75;100494.66;6196147;23;20008;-73
2021/05/07 10:48:26;;;;;;;0.93;0.20;;;;;;;19.00;25.43;100491.94;6196069;23;20008;-74
2021/05/07 10:50:58;;;;;;;0.82;0.50;;;;;;;20.28;25.92;100494.66;6224323;23;20023;-74
2021/05/07 10:53:27;;;;;;;1.48;1.02;;;;;;;22.20;25.05;100480.75;6200767;23;20086;-73
2021/05/07 10:55:53;;;;;;;0.88;0.32;;;;;;;24.33;23.45;100507.75;6199242;23;20064;-74
2021/05/07 10:58:33;;;;;;;0.20;0.20;;;;;;;26.00;19.30;100504.94;6199255;23;20016;-73
2021/05/07 11:00:58;;;;;;;2.47;0.20;;;;;;;26.56;18.62;100515.63;6224790;23;20005;-74
2021/05/07 11:03:24;;;;;;;2.78;0.30;;;;;;;27.08;16.44;100515.31;6219386;23;20023;-74
2021/05/07 11:05:51;;;;;;;0.40;0.30;;;;;;;26.36;16.67;100506.44;6163832;23;20009;-74
2021/05/07 11:08:16;;;;;;;0.40;0.40;;;;;;;26.48;18.08;100513.88;6196167;23;20004;-72
2021/05/07 11:10:43;;;;;;;0.43;0.20;;;;;;;27.67;17.91;100498.94;6198656;23;20582;-75
2021/05/07 11:13:12;;;;;;;1.45;0.30;;;;;;;28.37;16.45;100497.38;6196797;23;20008;-76
2021/05/07 11:15:45;;;;;;;0.95;0.32;;;;;;;27.50;15.36;100491.91;6202015;23;20032;-77
2021/05/07 11:18:13;;;;;;;1.02;0.40;;;;;;;26.10;14.82;100498.75;6223153;23;20008;-74
2021/05/07 11:20:40;;;;;;;0.68;0.20;;;;;;;25.20;15.79;100486.41;6221101;23;20078;-73
2021/05/07 11:23:10;;;;;;;0.30;0.28;;;;;;;24.63;15.31;100491.41;6223187;23;20096;-75
2021/05/07 11:25:37;;;;;;;0.30;0.20;;;;;;;24.32;15.67;100492.16;6224496;23;20000;-75
2021/05/07 11:28:27;;;;;;;3.72;0.43;;;;;;;23.76;15.61;100491.00;6196021;22;20004;-75
2021/05/07 11:30:54;;;;;;;1.45;0.50;;;;;;;22.34;17.08;100491.59;6200103;23;20053;-76
2021/05/07 11:33:25;;;;;;;0.40;0.30;;;;;;;21.05;18.03;100488.31;6202427;23;20008;-76
2021/05/07 11:36:18;;;;;;;;;;;;;;;;;;;;;
2021/05/07 11:38:45;;;;;;;1.05;0.40;;;;;;;18.86;19.85;100491.22;6227685;23;20004;-74
2021/05/07 11:41:25;;;;;;;0.73;0.47;;;;;;;18.11;21.30;100491.00;6228823;23;20001;-75
2021/05/07 11:43:51;;;;;;;0.73;0.30;;;;;;;17.50;22.19;100479.41;6199817;23;20027;-75
2021/05/07 11:46:18;;;;;;;1.20;0.50;;;;;;;17.18;23.06;100484.78;6201043;23;20001;-73
2021/05/07 11:48:51;;;;;;;0.50;0.20;;;;;;;16.93;23.58;100489.72;6228165;23;20438;-75
2021/05/07 11:51:17;;;;;;;0.57;0.45;;;;;;;16.83;24.52;100494.59;6200127;23;20058;-74
2021/05/07 11:53:43;;;;;;;0.30;0.30;;;;;;;16.54;24.36;100493.78;6227522;23;20008;-76